Time;durP1;ratioP1;P1;durP2;ratioP2;P2;SDS_P1;SDS_P2;PMS_P1;PMS_P2;Temp;Humidity;BMP_temperature;BMP_pressure;BME280_temperature;BME280_humidity;BME280_pressure;Samples;Min_cycle;Max_cycle;Signal;HPM_P1;HPM_P2
2022/03/26 00:01:49;;;;;;;0.70;0.70;;;5.70;99.90;;;;;;5055039;28;20175;-75
2022/03/26 00:04:16;;;;;;;0.80;0.80;;;5.70;1.00;;;;;;5054700;28;20258;-75
2022/03/26 00:06:43;;;;;;;0.70;0.70;;;5.60;1.00;;;;;;5055619;28;20190;-74
2022/03/26 00:09:08;;;;;;;0.73;0.73;;;5.60;1.00;;;;;;5054085;28;20183;-76
2022/03/26 00:11:34;;;;;;;0.70;0.70;;;5.60;1.00;;;;;;5055146;28;20337;-73
2022/03/26 00:13:59;;;;;;;0.80;0.80;;;5.70;1.00;;;;;;5055840;28;20206;-76
2022/03/26 00:16:25;;;;;;;0.80;0.80;;;5.80;1.00;;;;;;5055110;28;20665;-75
2022/03/26 00:18:50;;;;;;;0.70;0.70;;;5.90;1.00;;;;;;5054233;28;20609;-74
2022/03/26 00:21:16;;;;;;;0.80;0.80;;;6.10;1.00;;;;;;5054265;28;20206;-73
2022/03/26 00:23:42;;;;;;;0.77;0.77;;;6.30;1.00;;;;;;5054392;28;20215;-75
2022/03/26 00:26:10;;;;;;;0.80;0.80;;;6.50;1.00;;;;;;5054210;28;20182;-74
2022/03/26 00:28:37;;;;;;;0.70;0.70;;;6.60;1.00;;;;;;5053897;28;20183;-77
2022/03/26 00:31:04;;;;;;;0.70;0.70;;;6.80;1.00;;;;;;5053382;28;20202;-74
2022/03/26 00:33:30;;;;;;;0.77;0.77;;;6.70;1.00;;;;;;5055878;28;20640;-74
2022/03/26 00:35:56;;;;;;;0.70;0.70;;;6.20;1.00;;;;;;5055386;28;20175;-75
2022/03/26 00:38:22;;;;;;;0.80;0.80;;;6.40;1.00;;;;;;5054304;28;20270;-75
2022/03/26 00:40:48;;;;;;;0.80;0.80;;;6.50;1.00;;;;;;5054366;28;20712;-74
2022/03/26 00:43:14;;;;;;;0.70;0.70;;;6.50;1.00;;;;;;5054718;28;20183;-74
2022/03/26 00:45:40;;;;;;;0.70;0.70;;;6.40;1.00;;;;;;5054406;28;20680;-74
2022/03/26 00:48:05;;;;;;;0.80;0.80;;;6.50;1.00;;;;;;5055309;28;20179;-76
2022/03/26 00:50:31;;;;;;;0.70;0.70;;;6.40;1.00;;;;;;5056433;28;20203;-75
2022/03/26 00:52:57;;;;;;;0.70;0.70;;;6.20;1.00;;;;;;5054815;28;20167;-74
2022/03/26 00:55:22;;;;;;;0.70;0.70;;;6.10;1.00;;;;;;5054310;28;20179;-74
2022/03/26 00:57:48;;;;;;;0.70;0.70;;;6.00;1.00;;;;;;5054622;28;20659;-74
2022/03/26 01:00:14;;;;;;;0.80;0.80;;;5.70;1.00;;;;;;5058459;28;20199;-74
2022/03/26 01:02:40;;;;;;;0.70;0.70;;;5.50;1.00;;;;;;5058680;28;20183;-74
2022/03/26 01:05:06;;;;;;;0.70;0.70;;;5.20;1.00;;;;;;5053469;28;20238;-74
2022/03/26 01:07:32;;;;;;;0.80;0.80;;;5.10;1.00;;;;;;5053013;28;20179;-74
2022/03/26 01:09:58;;;;;;;0.70;0.70;;;5.00;1.00;;;;;;5053087;28;20206;-74
2022/03/26 01:12:25;;;;;;;0.63;0.63;;;4.90;1.00;;;;;;5053417;28;20618;-74
2022/03/26 01:14:51;;;;;;;0.80;0.80;;;5.00;1.00;;;;;;5053394;28;20182;-74
2022/03/26 01:17:17;;;;;;;0.70;0.70;;;5.00;1.00;;;;;;5052980;28;20176;-75
2022/03/26 01:19:43;;;;;;;0.70;0.70;;;5.10;1.00;;;;;;5052295;28;20205;-74
2022/03/26 01:22:09;;;;;;;0.90;0.90;;;5.10;1.00;;;;;;5052805;28;20179;-74
2022/03/26 01:24:34;;;;;;;0.70;0.70;;;5.10;1.00;;;;;;5052661;28;20215;-74
2022/03/26 01:27:00;;;;;;;0.73;0.73;;;5.00;1.00;;;;;;5052759;28;20179;-74
2022/03/26 01:29:26;;;;;;;0.80;0.80;;;5.30;1.00;;;;;;5052040;28;20171;-73
2022/03/26 01:31:52;;;;;;;0.80;0.80;;;5.40;1.00;;;;;;5052985;28;20551;-74
2022/03/26 01:34:18;;;;;;;0.80;0.80;;;5.30;1.00;;;;;;5054281;28;20705;-73
2022/03/26 01:36:43;;;;;;;0.80;0.80;;;5.20;1.00;;;;;;5052412;28;20171;-74
2022/03/26 01:39:10;;;;;;;0.70;0.70;;;5.20;1.00;;;;;;5052002;28;20175;-74
2022/03/26 01:41:35;;;;;;;0.70;0.70;;;5.20;5.00;;;;;;5052325;28;20195;-75
2022/03/26 01:44:01;;;;;;;0.80;0.80;;;5.20;45.30;;;;;;5052371;28;20240;-74
2022/03/26 01:46:26;;;;;;;0.70;0.70;;;5.10;72.30;;;;;;5052255;28;20171;-73
2022/03/26 01:48:53;;;;;;;0.80;0.80;;;5.00;99.90;;;;;;5051748;28;20174;-74
2022/03/26 01:51:19;;;;;;;0.80;0.80;;;5.10;99.90;;;;;;5052054;28;20207;-74
2022/03/26 01:53:50;;;;;;;0.80;0.80;;;5.20;99.90;;;;;;5052199;28;20213;-74
2022/03/26 01:56:17;;;;;;;0.70;0.70;;;5.10;97.40;;;;;;5052148;28;20183;-74
2022/03/26 01:58:43;;;;;;;0.80;0.80;;;5.10;99.90;;;;;;5052002;28;20199;-75
2022/03/26 02:01:09;;;;;;;0.80;0.80;;;5.20;79.10;;;;;;5050356;28;20667;-74
2022/03/26 02:03:35;;;;;;;0.80;0.80;;;5.30;1.00;;;;;;5051992;28;20175;-75
2022/03/26 02:06:01;;;;;;;0.77;0.77;;;5.20;1.00;;;;;;5051935;28;20549;-75
2022/03/26 02:08:27;;;;;;;0.77;0.77;;;5.10;35.20;;;;;;5053606;28;20186;-74
2022/03/26 02:10:53;;;;;;;0.80;0.80;;;5.00;1.00;;;;;;5053490;28;20288;-74
2022/03/26 02:13:19;;;;;;;0.80;0.80;;;4.90;23.90;;;;;;5053568;28;20205;-75
2022/03/26 02:15:45;;;;;;;0.77;0.77;;;5.00;36.60;;;;;;5052809;28;20244;-75
2022/03/26 02:18:11;;;;;;;0.80;0.80;;;5.10;49.30;;;;;;5051506;28;20255;-75
2022/03/26 02:20:37;;;;;;;0.80;0.80;;;4.90;22.60;;;;;;5051437;28;20222;-76
2022/03/26 02:23:03;;;;;;;0.83;0.83;;;4.90;97.60;;;;;;5052027;28;20183;-76
2022/03/26 02:25:28;;;;;;;0.80;0.80;;;4.80;99.90;;;;;;5051742;28;20864;-74
2022/03/26 02:27:54;;;;;;;0.90;0.90;;;4.70;99.90;;;;;;5051396;28;20591;-74
2022/03/26 02:30:21;;;;;;;0.80;0.80;;;4.70;99.90;;;;;;5050854;28;20656;-75
2022/03/26 02:32:47;;;;;;;0.80;0.80;;;4.70;99.90;;;;;;5051638;28;20174;-74
2022/03/26 02:35:13;;;;;;;0.87;0.87;;;4.50;99.90;;;;;;5051308;28;20193;-74
2022/03/26 02:37:39;;;;;;;0.80;0.80;;;4.50;99.90;;;;;;5051530;28;20341;-75
2022/03/26 02:40:07;;;;;;;0.90;0.90;;;4.30;99.90;;;;;;5050879;28;20286;-75
2022/03/26 02:42:34;;;;;;;0.90;0.90;;;4.30;99.90;;;;;;5051302;28;20555;-74
2022/03/26 02:45:00;;;;;;;0.80;0.80;;;4.30;99.90;;;;;;5051197;28;20211;-74
2022/03/26 02:47:26;;;;;;;0.70;0.70;;;4.30;99.90;;;;;;5051178;28;20175;-74
2022/03/26 02:49:51;;;;;;;0.90;0.90;;;4.20;99.90;;;;;;5050574;28;20206;-74
2022/03/26 02:52:17;;;;;;;0.80;0.80;;;4.10;99.90;;;;;;5051011;28;20171;-76
2022/03/26 02:54:43;;;;;;;0.90;0.90;;;4.20;1.00;;;;;;5051243;28;20609;-75
2022/03/26 02:57:08;;;;;;;0.80;0.80;;;4.10;99.90;;;;;;5051067;28;20198;-75
2022/03/26 02:59:34;;;;;;;0.77;0.77;;;3.80;99.90;;;;;;5050716;28;20179;-75
2022/03/26 03:01:59;;;;;;;0.80;0.80;;;3.70;1.00;;;;;;5051040;28;20175;-76
2022/03/26 03:04:25;;;;;;;0.80;0.80;;;3.70;99.90;;;;;;5050776;28;20218;-74
2022/03/26 03:06:51;;;;;;;0.80;0.80;;;3.80;99.90;;;;;;5051442;28;20238;-74
2022/03/26 03:09:17;;;;;;;0.80;0.80;;;3.70;99.90;;;;;;5050692;28;20214;-75
2022/03/26 03:11:43;;;;;;;0.80;0.80;;;3.60;99.90;;;;;;5051729;28;20218;-75
2022/03/26 03:14:10;;;;;;;0.90;0.90;;;3.50;99.90;;;;;;5055164;28;20508;-75
2022/03/26 03:16:37;;;;;;;0.80;0.80;;;3.40;1.00;;;;;;5055069;28;20551;-74
2022/03/26 03:19:03;;;;;;;0.83;0.83;;;3.50;99.90;;;;;;5054563;28;20178;-74
2022/03/26 03:21:29;;;;;;;0.80;0.80;;;3.10;1.00;;;;;;5055091;28;20252;-73
2022/03/26 03:23:54;;;;;;;0.80;0.80;;;3.00;99.90;;;;;;5055172;28;20203;-74
2022/03/26 03:26:20;;;;;;;0.80;0.80;;;3.20;99.90;;;;;;5070165;23;20231;-77
2022/03/26 03:28:46;;;;;;;0.80;0.80;;;3.20;99.90;;;;;;5058021;28;20206;-78
2022/03/26 03:31:11;;;;;;;0.80;0.80;;;3.10;1.00;;;;;;5060753;28;20198;-79
2022/03/26 03:33:37;;;;;;;0.80;0.80;;;3.00;99.90;;;;;;5060925;28;20209;-79
2022/03/26 03:36:04;;;;;;;0.80;0.80;;;3.00;1.00;;;;;;5061399;28;20179;-78
2022/03/26 03:38:30;;;;;;;0.80;0.80;;;2.90;1.00;;;;;;5061689;28;20179;-78
2022/03/26 03:40:55;;;;;;;0.70;0.70;;;2.80;31.40;;;;;;5057093;28;20558;-77
2022/03/26 03:43:22;;;;;;;0.90;0.90;;;2.80;99.90;;;;;;5055451;28;20255;-77
2022/03/26 03:45:48;;;;;;;0.73;0.73;;;2.80;1.00;;;;;;5055518;28;20298;-77
2022/03/26 03:48:13;;;;;;;0.80;0.80;;;2.80;1.00;;;;;;5055827;28;20179;-77
2022/03/26 03:50:39;;;;;;;0.77;0.77;;;2.90;1.00;;;;;;5054771;28;20707;-78
2022/03/26 03:53:05;;;;;;;0.80;0.80;;;3.00;99.90;;;;;;5055024;28;20628;-78
2022/03/26 03:55:30;;;;;;;0.80;0.80;;;3.00;1.00;;;;;;5055077;28;20179;-77
2022/03/26 03:57:56;;;;;;;0.80;0.80;;;2.90;1.00;;;;;;5054589;28;20202;-77
2022/03/26 04:00:21;;;;;;;0.80;0.80;;;2.80;1.00;;;;;;5054052;28;20199;-77
2022/03/26 04:02:47;;;;;;;0.80;0.80;;;2.60;1.00;;;;;;5054693;28;20175;-77
2022/03/26 04:05:13;;;;;;;0.80;0.80;;;2.50;1.00;;;;;;5055383;28;20218;-77
2022/03/26 04:07:40;;;;;;;0.80;0.80;;;2.40;1.00;;;;;;5057271;28;20186;-77
2022/03/26 04:10:07;;;;;;;0.80;0.80;;;2.40;1.00;;;;;;5055942;28;20199;-77
2022/03/26 04:12:38;;;;;;;0.87;0.87;;;2.20;99.90;;;;;;5055456;28;20175;-77
2022/03/26 04:15:05;;;;;;;0.80;0.80;;;2.30;99.90;;;;;;5055194;28;20179;-77
2022/03/26 04:17:32;;;;;;;0.87;0.87;;;2.40;1.00;;;;;;5055259;28;20171;-77
2022/03/26 04:19:58;;;;;;;0.80;0.80;;;2.50;99.90;;;;;;5055191;28;20195;-77
2022/03/26 04:22:24;;;;;;;0.80;0.80;;;2.50;1.00;;;;;;5056297;28;20202;-77
2022/03/26 04:24:49;;;;;;;0.80;0.80;;;2.40;99.90;;;;;;5054897;28;20237;-77
2022/03/26 04:27:15;;;;;;;0.70;0.70;;;2.40;5.40;;;;;;5059124;28;20206;-77
2022/03/26 04:29:41;;;;;;;0.83;0.83;;;2.10;1.00;;;;;;5057483;28;20205;-77
2022/03/26 04:32:06;;;;;;;0.80;0.80;;;1.90;99.90;;;;;;5057835;28;20206;-77
2022/03/26 04:34:32;;;;;;;0.80;0.80;;;1.80;1.00;;;;;;5054603;28;20608;-77
2022/03/26 04:36:58;;;;;;;0.90;0.90;;;1.70;1.00;;;;;;5054123;28;20201;-77
2022/03/26 04:39:23;;;;;;;0.80;0.80;;;1.90;52.00;;;;;;5055357;28;20182;-77
2022/03/26 04:41:49;;;;;;;0.80;0.80;;;1.80;1.00;;;;;;5057063;28;20183;-76
2022/03/26 04:44:15;;;;;;;0.80;0.80;;;1.70;99.90;;;;;;5056926;28;20687;-77
2022/03/26 04:46:40;;;;;;;0.70;0.70;;;1.70;1.00;;;;;;5057250;28;20179;-77
2022/03/26 04:49:06;;;;;;;0.80;0.80;;;1.80;1.00;;;;;;5053792;28;20574;-77
2022/03/26 04:51:31;;;;;;;0.80;0.80;;;1.70;99.90;;;;;;5053619;28;20225;-77
2022/03/26 04:53:57;;;;;;;0.80;0.80;;;1.60;99.90;;;;;;5053573;28;20178;-77
2022/03/26 04:56:23;;;;;;;0.80;0.80;;;1.30;1.00;;;;;;5053255;28;20178;-77
2022/03/26 04:58:48;;;;;;;0.87;0.87;;;1.40;1.00;;;;;;5053540;28;20195;-77
2022/03/26 05:01:15;;;;;;;0.80;0.80;;;1.40;1.00;;;;;;5053645;28;20605;-77
2022/03/26 05:03:41;;;;;;;0.80;0.80;;;1.50;1.00;;;;;;5055996;28;20180;-77
2022/03/26 05:06:07;;;;;;;0.80;0.80;;;1.50;99.90;;;;;;5054505;28;20611;-77
2022/03/26 05:08:32;;;;;;;0.80;0.80;;;1.40;1.00;;;;;;5054653;28;20207;-77
2022/03/26 05:10:58;;;;;;;0.80;0.80;;;1.20;1.00;;;;;;5053721;28;20686;-76
2022/03/26 05:13:24;;;;;;;0.80;0.80;;;1.10;99.90;;;;;;5052961;28;20261;-76
2022/03/26 05:15:50;;;;;;;0.70;0.70;;;1.20;99.90;;;;;;5053574;28;20258;-82
2022/03/26 05:18:17;;;;;;;0.80;0.80;;;1.10;99.90;;;;;;5063657;28;20199;-80
2022/03/26 05:20:43;;;;;;;0.90;0.90;;;1.10;1.00;;;;;;5068109;28;20191;-80
2022/03/26 05:23:09;;;;;;;0.83;0.83;;;1.10;1.00;;;;;;5068062;28;20721;-78
2022/03/26 05:25:35;;;;;;;0.80;0.80;;;1.30;99.90;;;;;;5061534;28;20214;-81
2022/03/26 05:28:01;;;;;;;0.80;0.80;;;1.50;1.00;;;;;;5056356;28;20212;-79
2022/03/26 05:30:27;;;;;;;0.80;0.80;;;1.50;1.00;;;;;;5057328;28;20256;-78
2022/03/26 05:32:52;;;;;;;0.83;0.83;;;1.40;1.00;;;;;;5061341;28;20183;-78
2022/03/26 05:35:18;;;;;;;0.80;0.80;;;1.50;1.00;;;;;;5056227;28;20187;-78
2022/03/26 05:37:45;;;;;;;0.80;0.80;;;1.60;99.90;;;;;;5056615;28;20730;-79
2022/03/26 05:40:13;;;;;;;0.80;0.80;;;1.80;1.00;;;;;;5056086;28;20199;-80
2022/03/26 05:42:39;;;;;;;0.80;0.80;;;2.00;58.60;;;;;;5053429;28;20163;-80
2022/03/26 05:45:06;;;;;;;0.80;0.80;;;2.00;99.90;;;;;;5054515;28;20294;-79
2022/03/26 05:47:32;;;;;;;0.70;0.70;;;2.00;1.00;;;;;;5053671;28;20175;-80
2022/03/26 05:49:58;;;;;;;0.73;0.73;;;2.10;1.00;;;;;;5051880;28;20290;-77
2022/03/26 05:52:24;;;;;;;0.80;0.80;;;2.20;1.00;;;;;;5053083;28;20263;-79
2022/03/26 05:54:50;;;;;;;0.77;0.77;;;2.20;1.00;;;;;;5056858;28;20636;-79
2022/03/26 05:57:15;;;;;;;0.90;0.90;;;2.40;1.00;;;;;;5055860;28;20224;-81
2022/03/26 05:59:41;;;;;;;0.80;0.80;;;2.50;1.00;;;;;;5057830;28;20237;-79
2022/03/26 06:02:10;;;;;;;0.90;0.90;;;2.50;1.00;;;;;;5055919;28;20643;-76
2022/03/26 06:04:36;;;;;;;0.80;0.80;;;2.70;1.00;;;;;;5059402;28;20207;-80
2022/03/26 06:07:02;;;;;;;0.80;0.80;;;2.70;1.00;;;;;;5059265;28;20174;-79
2022/03/26 06:09:27;;;;;;;0.80;0.80;;;2.70;99.90;;;;;;5057737;28;20596;-78
2022/03/26 06:11:53;;;;;;;0.90;0.90;;;2.80;1.00;;;;;;5056451;28;20239;-78
2022/03/26 06:14:18;;;;;;;0.80;0.80;;;2.60;99.90;;;;;;5054534;28;20185;-78
2022/03/26 06:16:45;;;;;;;0.80;0.80;;;2.70;99.90;;;;;;5055303;28;20175;-78
2022/03/26 06:19:12;;;;;;;0.77;0.77;;;2.80;99.90;;;;;;5056062;28;20669;-79
2022/03/26 06:21:37;;;;;;;0.70;0.70;;;2.90;99.90;;;;;;5059845;28;20191;-78
2022/03/26 06:24:05;;;;;;;0.80;0.80;;;3.30;99.90;;;;;;5058004;28;20207;-79
2022/03/26 06:26:30;;;;;;;0.80;0.80;;;3.40;99.90;;;;;;5058810;28;20198;-78
2022/03/26 06:28:56;;;;;;;0.90;0.90;;;3.60;99.90;;;;;;5057503;28;20171;-78
2022/03/26 06:31:22;;;;;;;0.73;0.73;;;4.00;99.90;;;;;;5056265;28;20280;-78
2022/03/26 06:33:47;;;;;;;0.90;0.90;;;4.40;1.00;;;;;;5054340;28;20253;-78
2022/03/26 06:36:16;;;;;;;0.80;0.80;;;4.90;20.90;;;;;;5054696;28;20717;-78
2022/03/26 06:38:44;;;;;;;0.70;0.70;;;4.90;99.90;;;;;;5053618;28;20179;-78
2022/03/26 06:41:10;;;;;;;0.77;0.77;;;5.20;1.00;;;;;;5053022;28;20226;-76
2022/03/26 06:43:37;;;;;;;0.87;0.87;;;5.40;1.00;;;;;;5053756;28;20178;-78
2022/03/26 06:46:03;;;;;;;0.80;0.80;;;5.40;99.90;;;;;;5052556;28;20284;-77
2022/03/26 06:48:29;;;;;;;0.70;0.70;;;4.80;1.00;;;;;;5051676;28;20701;-77
2022/03/26 06:50:54;;;;;;;0.73;0.73;;;5.10;99.90;;;;;;5051530;28;20277;-79
2022/03/26 06:53:20;;;;;;;0.80;0.80;;;5.00;99.90;;;;;;5052300;28;20186;-78
2022/03/26 06:55:46;;;;;;;0.80;0.80;;;5.10;99.90;;;;;;5053122;28;20555;-80
2022/03/26 06:58:11;;;;;;;0.70;0.70;;;5.50;1.00;;;;;;5050922;28;20171;-78
2022/03/26 07:00:37;;;;;;;0.63;0.63;;;6.00;1.00;;;;;;5051986;28;20199;-78
2022/03/26 07:03:02;;;;;;;0.70;0.70;;;6.80;99.90;;;;;;5053465;28;20266;-78
2022/03/26 07:05:28;;;;;;;0.60;0.60;;;7.30;1.00;;;;;;5052512;28;20253;-77
2022/03/26 07:07:54;;;;;;;0.63;0.63;;;7.80;1.00;;;;;;5052896;28;20605;-78
2022/03/26 07:10:20;;;;;;;0.60;0.60;;;8.50;1.00;;;;;;5052496;28;20270;-78
2022/03/26 07:12:46;;;;;;;0.50;0.50;;;8.70;1.00;;;;;;5054571;28;20610;-77
2022/03/26 07:15:11;;;;;;;0.50;0.50;;;8.50;1.00;;;;;;5054859;28;20262;-77
2022/03/26 07:17:41;;;;;;;0.60;0.60;;;9.00;1.00;;;;;;5055084;28;20175;-78
2022/03/26 07:20:08;;;;;;;0.50;0.50;;;10.00;1.00;;;;;;5055482;28;20593;-76
2022/03/26 07:22:37;;;;;;;0.43;0.43;;;10.40;1.00;;;;;;5054026;28;20175;-78
2022/03/26 07:25:04;;;;;;;0.50;0.50;;;10.80;1.00;;;;;;5053749;28;20709;-78
2022/03/26 07:27:33;;;;;;;0.40;0.40;;;12.00;1.00;;;;;;5053137;28;20644;-78
2022/03/26 07:29:59;;;;;;;0.30;0.30;;;12.80;1.00;;;;;;5057314;28;20373;-78
2022/03/26 07:32:25;;;;;;;0.50;0.50;;;13.20;1.00;;;;;;5057664;28;20242;-79
2022/03/26 07:34:51;;;;;;;0.40;0.40;;;14.00;1.00;;;;;;5056763;28;20707;-79
2022/03/26 07:37:17;;;;;;;0.33;0.33;;;14.30;1.00;;;;;;5054085;28;20191;-79
2022/03/26 07:39:42;;;;;;;0.30;0.30;;;14.10;1.00;;;;;;5056117;28;20201;-79
2022/03/26 07:42:08;;;;;;;0.40;0.40;;;14.30;1.00;;;;;;5055527;28;20195;-78
2022/03/26 07:44:33;;;;;;;0.37;0.37;;;14.20;1.00;;;;;;5055054;28;20306;-80
2022/03/26 07:46:59;;;;;;;0.40;0.40;;;14.20;1.00;;;;;;5056165;28;20525;-81
2022/03/26 07:49:25;;;;;;;0.30;0.30;;;14.70;1.00;;;;;;5055209;28;20542;-81
2022/03/26 07:51:50;;;;;;;0.33;0.33;;;15.30;1.00;;;;;;5055876;28;20198;-81
2022/03/26 07:54:16;;;;;;;0.30;0.30;;;15.60;1.00;;;;;;5057004;28;20248;-79
2022/03/26 07:56:41;;;;;;;0.33;0.33;;;15.70;1.00;;;;;;5056431;28;20178;-79
2022/03/26 07:59:07;;;;;;;0.30;0.30;;;16.00;1.00;;;;;;5059308;28;20233;-81
2022/03/26 08:01:33;;;;;;;0.30;0.30;;;16.10;1.00;;;;;;5061151;28;20202;-80
2022/03/26 08:03:59;;;;;;;0.30;0.30;;;16.60;1.00;;;;;;5069362;28;20206;-81
2022/03/26 08:06:25;;;;;;;0.30;0.30;;;16.90;1.00;;;;;;5077491;28;20253;-82
2022/03/26 08:08:50;;;;;;;0.30;0.30;;;16.70;1.00;;;;;;5074321;28;20167;-81
2022/03/26 08:11:16;;;;;;;0.40;0.40;;;16.70;1.00;;;;;;5074901;28;20282;-80
2022/03/26 08:13:42;;;;;;;0.40;0.40;;;16.70;1.00;;;;;;5075049;28;20246;-80
2022/03/26 08:16:08;;;;;;;0.37;0.37;;;17.00;1.00;;;;;;5073345;28;20210;-80
2022/03/26 08:18:33;;;;;;;0.30;0.30;;;17.00;1.00;;;;;;5063275;28;20195;-81
2022/03/26 08:20:59;;;;;;;0.30;0.30;;;17.20;1.00;;;;;;5076569;28;20183;-80
2022/03/26 08:23:25;;;;;;;0.30;0.30;;;17.40;1.00;;;;;;5076936;28;20175;-81
2022/03/26 08:28:35;;;;;;;0.30;0.30;;;18.10;1.00;;;;;;5057745;28;20190;-81
2022/03/26 08:31:00;;;;;;;0.30;0.30;;;18.30;1.00;;;;;;5057939;28;20203;-79
2022/03/26 08:33:26;;;;;;;0.40;0.40;;;18.20;1.00;;;;;;5058475;28;20556;-79
2022/03/26 08:35:51;;;;;;;0.40;0.40;;;18.20;1.00;;;;;;5058155;28;20544;-80
2022/03/26 08:38:17;;;;;;;0.40;0.40;;;18.10;1.00;;;;;;5057500;28;20175;-78
2022/03/26 08:40:42;;;;;;;0.40;0.40;;;18.70;1.00;;;;;;5057059;28;20195;-79
2022/03/26 08:43:08;;;;;;;0.30;0.30;;;18.80;1.00;;;;;;5056265;28;20221;-81
2022/03/26 08:45:37;;;;;;;0.50;0.50;;;18.90;1.00;;;;;;5057295;28;20352;-81
2022/03/26 08:48:03;;;;;;;0.20;0.20;;;19.10;1.00;;;;;;5056732;28;20178;-81
2022/03/26 08:50:29;;;;;;;0.30;0.30;;;18.80;1.00;;;;;;5057820;28;20244;-80
2022/03/26 08:52:54;;;;;;;0.40;0.40;;;18.80;1.00;;;;;;5056445;28;20250;-81
2022/03/26 08:55:20;;;;;;;0.40;0.40;;;18.60;1.00;;;;;;5057681;28;20190;-81
2022/03/26 08:57:46;;;;;;;0.37;0.37;;;19.00;1.00;;;;;;5056834;28;20183;-78
2022/03/26 09:00:13;;;;;;;0.50;0.50;;;19.50;1.00;;;;;;5056476;28;20202;-80
2022/03/26 09:02:39;;;;;;;0.40;0.40;;;19.80;1.00;;;;;;5056926;28;20172;-78
2022/03/26 09:05:08;;;;;;;0.40;0.40;;;19.70;1.00;;;;;;5058543;28;20214;-79
2022/03/26 09:07:35;;;;;;;0.40;0.40;;;19.40;1.00;;;;;;5057718;28;20179;-81
2022/03/26 09:10:02;;;;;;;0.40;0.40;;;19.70;1.00;;;;;;5056744;28;20202;-78
2022/03/26 09:12:27;;;;;;;0.40;0.40;;;19.50;1.00;;;;;;5057045;28;20175;-79
2022/03/26 09:14:53;;;;;;;0.40;0.40;;;19.40;1.00;;;;;;5056574;28;20198;-79
2022/03/26 09:17:18;;;;;;;0.40;0.40;;;19.20;1.00;;;;;;5055525;28;20246;-79
2022/03/26 09:19:44;;;;;;;0.30;0.30;;;19.60;1.00;;;;;;5055724;28;20270;-80
2022/03/26 09:22:10;;;;;;;0.40;0.40;;;20.10;1.00;;;;;;5056181;28;20175;-79
2022/03/26 09:24:35;;;;;;;0.30;0.30;;;19.70;1.00;;;;;;5056125;28;20205;-79
2022/03/26 09:27:01;;;;;;;0.20;0.20;;;19.70;1.00;;;;;;5153575;22;20821;-77
2022/03/26 09:29:26;;;;;;;0.30;0.30;;;19.60;1.00;;;;;;5055637;28;20209;-77
2022/03/26 09:31:52;;;;;;;0.37;0.37;;;19.50;1.00;;;;;;5057070;28;20258;-76
2022/03/26 09:34:17;;;;;;;0.30;0.30;;;19.70;1.00;;;;;;5055110;28;20179;-77
2022/03/26 09:36:43;;;;;;;0.23;0.23;;;19.80;1.00;;;;;;5055377;28;20692;-76
2022/03/26 09:39:09;;;;;;;0.30;0.30;;;20.20;1.00;;;;;;5053740;28;20206;-75
2022/03/26 09:41:36;;;;;;;0.30;0.30;;;20.20;1.00;;;;;;5054386;28;20191;-75
2022/03/26 09:44:02;;;;;;;0.30;0.30;;;20.40;1.00;;;;;;5053795;28;20242;-76
2022/03/26 09:46:28;;;;;;;0.40;0.40;;;20.80;1.00;;;;;;5054117;28;20183;-74
2022/03/26 09:48:54;;;;;;;0.30;0.30;;;20.60;1.00;;;;;;5052876;28;20263;-74
2022/03/26 09:51:24;;;;;;;0.30;0.30;;;20.70;1.00;;;;;;5053785;28;20240;-75
2022/03/26 09:53:51;;;;;;;0.30;0.30;;;20.80;1.00;;;;;;5053474;28;20176;-75
2022/03/26 09:56:18;;;;;;;0.30;0.30;;;20.70;1.00;;;;;;5054133;28;20281;-75
2022/03/26 09:58:44;;;;;;;0.23;0.23;;;21.00;1.00;;;;;;5054388;28;20171;-75
2022/03/26 10:01:09;;;;;;;0.50;0.50;;;21.40;1.00;;;;;;5054076;28;20572;-74
2022/03/26 10:03:39;;;;;;;0.50;0.50;;;21.60;1.00;;;;;;5054453;28;20178;-74
2022/03/26 10:06:07;;;;;;;0.37;0.37;;;22.00;1.00;;;;;;5053366;28;20300;-74
2022/03/26 10:08:39;;;;;;;0.33;0.33;;;21.80;1.00;;;;;;5053299;28;20198;-74
2022/03/26 10:11:06;;;;;;;0.50;0.50;;;22.20;1.00;;;;;;5052232;28;20226;-74
2022/03/26 10:13:34;;;;;;;0.40;0.40;;;21.80;1.00;;;;;;5052620;28;20176;-74
2022/03/26 10:16:13;;;;;;;0.40;0.40;;;21.60;1.00;;;;;;5052682;28;20254;-73
2022/03/26 10:18:41;;;;;;;0.40;0.40;;;21.80;1.00;;;;;;5052672;28;20210;-74
2022/03/26 10:21:09;;;;;;;0.43;0.43;;;22.00;1.00;;;;;;5051535;28;20219;-74
2022/03/26 10:23:35;;;;;;;0.40;0.40;;;21.90;1.00;;;;;;5052346;28;20178;-74
2022/03/26 10:26:15;;;;;;;0.40;0.40;;;21.40;1.00;;;;;;5052007;28;20714;-74
2022/03/26 10:28:42;;;;;;;0.50;0.50;;;22.00;1.00;;;;;;5052690;28;20277;-74
2022/03/26 10:34:10;;;;;;;0.40;0.40;;;22.60;1.00;;;;;;5052499;28;20210;-74
2022/03/26 10:36:40;;;;;;;0.40;0.40;;;22.90;1.00;;;;;;5052367;28;20219;-73
2022/03/26 10:39:12;;;;;;;0.40;0.40;;;22.60;1.00;;;;;;5053571;28;20270;-73
2022/03/26 10:41:38;;;;;;;0.30;0.30;;;22.20;1.00;;;;;;5052938;28;20207;-74
2022/03/26 10:44:28;;;;;;;0.50;0.50;;;21.40;1.00;;;;;;5053117;28;20245;-75
2022/03/26 10:46:59;;;;;;;0.30;0.30;;;20.50;1.00;;;;;;5044597;28;20262;-74
2022/03/26 10:49:30;;;;;;;0.30;0.30;;;21.20;1.00;;;;;;5052180;28;20179;-74
2022/03/26 10:51:57;;;;;;;0.27;0.27;;;21.20;1.00;;;;;;5052719;28;20639;-74
2022/03/26 10:54:30;;;;;;;0.40;0.40;;;21.50;1.00;;;;;;5052341;28;20278;-73
2022/03/26 10:56:58;;;;;;;0.30;0.30;;;20.70;1.00;;;;;;5052420;28;20175;-73
2022/03/26 10:59:24;;;;;;;0.30;0.30;;;20.90;1.00;;;;;;5051603;28;20202;-75
2022/03/26 11:01:50;;;;;;;0.30;0.30;;;21.90;1.00;;;;;;5052226;28;20175;-75
2022/03/26 11:04:16;;;;;;;0.30;0.30;;;22.00;1.00;;;;;;5052330;28;20215;-74
2022/03/26 11:06:42;;;;;;;0.27;0.27;;;22.00;1.00;;;;;;5052736;28;20175;-74
2022/03/26 11:09:09;;;;;;;0.37;0.37;;;21.40;1.00;;;;;;5051646;28;20260;-74
2022/03/26 11:11:35;;;;;;;0.30;0.30;;;21.40;1.00;;;;;;5052217;28;20199;-74
2022/03/26 11:14:09;;;;;;;0.30;0.30;;;21.10;1.00;;;;;;5052207;28;20552;-74
2022/03/26 11:16:49;;;;;;;0.43;0.43;;;21.90;1.00;;;;;;5052118;28;20185;-75
2022/03/26 11:19:39;;;;;;;0.30;0.30;;;22.40;1.00;;;;;;5051679;28;20187;-74
2022/03/26 11:22:49;;;;;;;0.20;0.20;;;22.70;1.00;;;;;;5052351;28;20647;-74
2022/03/26 11:25:44;;;;;;;0.30;0.30;;;23.00;1.00;;;;;;5036417;28;20253;-73
2022/03/26 11:28:33;;;;;;;0.30;0.30;;;23.40;1.00;;;;;;5052556;28;20289;-74
2022/03/26 11:31:26;;;;;;;0.40;0.40;;;24.10;1.00;;;;;;5052972;28;20199;-74
2022/03/26 11:34:03;;;;;;;0.40;0.40;;;22.50;1.00;;;;;;5054475;28;20181;-74
2022/03/26 11:36:29;;;;;;;0.33;0.33;;;22.80;1.00;;;;;;5055915;28;20266;-74
2022/03/26 11:39:07;;;;;;;0.40;0.40;;;23.60;1.00;;;;;;5054880;28;20198;-74
2022/03/26 11:41:33;;;;;;;0.30;0.30;;;23.10;1.00;;;;;;5055931;28;20285;-75
2022/03/26 11:44:01;;;;;;;0.47;0.47;;;23.30;1.00;;;;;;5055872;28;20265;-75
2022/03/26 11:52:33;;;;;;;0.30;0.30;;;22.30;1.00;;;;;;5018915;28;20230;-75
2022/03/26 11:55:01;;;;;;;0.30;0.30;;;22.80;1.00;;;;;;5056131;28;20217;-75
2022/03/26 11:57:27;;;;;;;0.20;0.20;;;23.20;1.00;;;;;;5056337;28;20262;-74
2022/03/26 11:59:53;;;;;;;0.30;0.30;;;22.70;1.00;;;;;;5055967;28;20199;-74
2022/03/26 12:02:26;;;;;;;0.33;0.33;;;23.10;1.00;;;;;;5056747;28;20191;-74
2022/03/26 12:04:58;;;;;;;0.20;0.20;;;22.70;1.00;;;;;;5058114;28;20219;-74
2022/03/26 12:07:30;;;;;;;0.20;0.20;;;23.50;1.00;;;;;;5056471;28;20202;-74
2022/03/26 12:10:04;;;;;;;0.20;0.20;;;23.60;1.00;;;;;;5057325;28;20621;-74
2022/03/26 12:12:48;;;;;;;0.30;0.30;;;23.30;1.00;;;;;;5058560;28;20361;-74
2022/03/26 12:15:14;;;;;;;0.27;0.27;;;23.90;1.00;;;;;;5058118;28;20270;-74
2022/03/26 12:17:47;;;;;;;0.30;0.30;;;24.70;1.00;;;;;;5056313;28;20245;-73
2022/03/26 12:20:32;;;;;;;0.30;0.30;;;24.30;1.00;;;;;;5055819;28;20195;-74
2022/03/26 12:23:11;;;;;;;0.40;0.40;;;23.70;1.00;;;;;;5055518;28;20652;-74
2022/03/26 12:25:37;;;;;;;0.30;0.30;;;23.60;1.00;;;;;;5055705;28;20226;-74
2022/03/26 12:28:04;;;;;;;0.30;0.30;;;22.90;1.00;;;;;;5056168;28;20187;-75
2022/03/26 12:30:31;;;;;;;0.30;0.30;;;22.90;1.00;;;;;;5056376;28;20664;-77
2022/03/26 12:32:58;;;;;;;0.30;0.30;;;23.00;1.00;;;;;;5058404;28;20301;-74
2022/03/26 12:35:25;;;;;;;0.30;0.30;;;22.50;1.00;;;;;;5057832;28;20591;-75
2022/03/26 12:37:50;;;;;;;0.30;0.30;;;22.80;1.00;;;;;;5058093;28;20168;-73
2022/03/26 12:40:17;;;;;;;0.30;0.30;;;23.50;1.00;;;;;;5055329;28;20747;-73
2022/03/26 12:42:43;;;;;;;0.30;0.30;;;23.00;1.00;;;;;;5055093;28;20175;-76
2022/03/26 12:45:14;;;;;;;0.30;0.30;;;23.40;1.00;;;;;;5054590;28;20664;-74
2022/03/26 12:47:44;;;;;;;0.30;0.30;;;23.20;1.00;;;;;;5056649;28;20589;-74
2022/03/26 12:50:10;;;;;;;0.30;0.30;;;23.90;1.00;;;;;;5056275;28;20191;-74
2022/03/26 12:52:36;;;;;;;0.40;0.40;;;23.50;1.00;;;;;;5056347;28;20187;-74
2022/03/26 12:55:01;;;;;;;0.30;0.30;;;23.50;1.00;;;;;;5058399;28;20506;-74
2022/03/26 12:58:56;;;;;;;0.30;0.30;;;23.20;1.00;;;;;;5056148;28;20190;-74
2022/03/26 13:00:23;;;;;;;0.30;0.30;;;23.00;1.00;;;;;;5057856;28;20228;-74
2022/03/26 13:03:06;;;;;;;0.30;0.30;;;22.50;1.00;;;;;;5059307;28;20202;-73
2022/03/26 13:05:34;;;;;;;0.30;0.30;;;22.00;1.00;;;;;;5057799;28;20261;-74
2022/03/26 13:08:00;;;;;;;0.30;0.30;;;21.80;99.90;;;;;;5058261;28;20713;-74
2022/03/26 13:10:31;;;;;;;0.30;0.30;;;21.50;99.90;;;;;;5055885;28;20203;-74
2022/03/26 13:12:57;;;;;;;0.30;0.30;;;21.40;99.90;;;;;;5056213;28;20171;-74